createdAt,value
2018-10-01T00:01:12.748Z,82.95
2018-10-01T00:03:45.893Z,83.06
2018-10-01T00:06:18.432Z,83.00
2018-10-01T00:08:51.240Z,82.73
2018-10-01T00:11:23.804Z,82.64
2018-10-01T00:13:57.288Z,82.63
2018-10-01T00:16:30.168Z,82.51
2018-10-01T00:19:22.805Z,82.29
2018-10-01T00:22:01.287Z,82.38
2018-10-01T00:24:35.184Z,82.40
2018-10-01T00:27:07.999Z,82.39
2018-10-01T00:29:41.252Z,82.43
2018-10-01T00:32:13.972Z,82.45
2018-10-01T00:34:46.492Z,82.57
2018-10-01T00:37:19.664Z,82.60
2018-10-01T00:39:52.227Z,82.73
2018-10-01T00:42:24.812Z,82.85
2018-10-01T00:44:58.648Z,83.05
2018-10-01T00:47:31.253Z,82.90
2018-10-01T00:50:04.169Z,83.06
2018-10-01T00:52:36.876Z,83.12
2018-10-01T00:55:09.348Z,82.94
2018-10-01T00:57:42.321Z,82.90
2018-10-01T01:00:16.630Z,82.90
2018-10-01T01:02:52.045Z,82.83
2018-10-01T01:05:25.328Z,82.71
2018-10-01T01:08:00.537Z,82.84
2018-10-01T01:10:34.072Z,82.86
2018-10-01T01:13:07.377Z,83.28
2018-10-01T01:15:43.685Z,83.41
2018-10-01T01:18:16.272Z,83.78
2018-10-01T01:20:48.910Z,83.93
2018-10-01T01:23:21.653Z,84.45
2018-10-01T01:25:54.476Z,84.86
2018-10-01T01:28:27.824Z,85.07
2018-10-01T01:31:00.828Z,85.14
2018-10-01T01:33:33.470Z,85.22
2018-10-01T01:36:06.028Z,85.18
2018-10-01T01:38:38.926Z,85.15
2018-10-01T01:41:12.404Z,85.26
2018-10-01T01:43:45.357Z,85.37
2018-10-01T01:46:19.146Z,85.35
2018-10-01T01:48:52.574Z,85.36
2018-10-01T01:51:28.460Z,85.42
2018-10-01T01:54:01.424Z,85.48
2018-10-01T01:56:33.997Z,85.50
2018-10-01T01:59:07.528Z,85.59
2018-10-01T02:01:43.334Z,85.69
2018-10-01T02:04:15.809Z,85.77
2018-10-01T02:06:48.408Z,85.75
2018-10-01T02:09:22.206Z,85.84
2018-10-01T02:11:54.791Z,85.91
2018-10-01T02:14:26.531Z,85.96
2018-10-01T02:16:59.553Z,86.12
2018-10-01T02:19:32.262Z,86.09
2018-10-01T02:22:06.929Z,86.22
2018-10-01T02:24:39.676Z,86.36
2018-10-01T02:27:12.322Z,86.46
2018-10-01T02:29:45.083Z,86.39
2018-10-01T02:32:18.121Z,86.38
2018-10-01T02:34:50.620Z,86.46
2018-10-01T02:37:23.180Z,86.49
2018-10-01T02:39:56.021Z,86.54
2018-10-01T02:42:29.145Z,86.54
2018-10-01T02:45:04.002Z,86.46
2018-10-01T02:47:38.109Z,86.52
2018-10-01T02:50:10.669Z,86.49
2018-10-01T02:53:02.952Z,86.43
2018-10-01T02:55:47.305Z,86.54
2018-10-01T02:58:20.137Z,86.42
2018-10-01T03:00:53.056Z,86.42
2018-10-01T03:03:25.689Z,86.63
2018-10-01T03:05:58.204Z,86.65
2018-10-01T03:08:31.937Z,86.60
2018-10-01T03:11:04.950Z,86.53
2018-10-01T03:13:39.456Z,86.56
2018-10-01T03:16:12.257Z,86.56
2018-10-01T03:18:44.776Z,86.56
2018-10-01T03:21:18.315Z,87.01
2018-10-01T03:23:52.219Z,86.61
2018-10-01T03:26:25.817Z,86.51
2018-10-01T03:28:58.452Z,86.66
2018-10-01T03:31:31.385Z,86.71
2018-10-01T03:34:03.832Z,86.71
2018-10-01T03:36:36.541Z,86.70
2018-10-01T03:39:10.577Z,86.64
2018-10-01T03:41:43.121Z,86.61
2018-10-01T03:44:15.677Z,86.59
2018-10-01T03:46:48.296Z,86.55
2018-10-01T03:49:22.440Z,86.56
2018-10-01T03:51:55.288Z,86.70
2018-10-01T03:54:28.060Z,86.70
2018-10-01T03:57:01.069Z,86.87
2018-10-01T03:59:33.616Z,87.00
2018-10-01T04:02:07.250Z,87.03
2018-10-01T04:04:40.657Z,87.07
2018-10-01T04:07:13.193Z,87.17
2018-10-01T04:09:45.768Z,87.43
2018-10-01T04:12:18.529Z,87.61
2018-10-01T04:14:51.101Z,87.70
2018-10-01T04:17:23.563Z,87.72
2018-10-01T04:19:56.723Z,87.75
2018-10-01T04:22:38.129Z,87.81
2018-10-01T04:25:11.874Z,87.78
2018-10-01T04:27:44.624Z,87.86
2018-10-01T04:30:16.764Z,87.94
2018-10-01T04:32:49.336Z,88.04
2018-10-01T04:35:22.253Z,88.15
2018-10-01T04:37:55.367Z,88.29
2018-10-01T04:40:27.913Z,88.37
2018-10-01T04:43:01.141Z,88.43
2018-10-01T04:45:34.916Z,88.49
2018-10-01T04:48:07.457Z,88.52
2018-10-01T04:50:40.281Z,88.47
2018-10-01T04:53:12.836Z,88.44
2018-10-01T04:55:45.436Z,88.58
2018-10-01T04:58:18.618Z,88.76
2018-10-01T05:00:51.176Z,88.80
2018-10-01T05:03:23.517Z,88.86
2018-10-01T05:05:56.396Z,89.01
2018-10-01T05:08:28.881Z,89.18
2018-10-01T05:11:01.584Z,89.35
2018-10-01T05:13:34.484Z,89.41
2018-10-01T05:16:07.288Z,89.44
2018-10-01T05:18:39.819Z,89.39
2018-10-01T05:21:12.499Z,89.45
2018-10-01T05:23:44.948Z,89.42
2018-10-01T05:26:17.580Z,89.33
2018-10-01T05:28:50.145Z,89.26
2018-10-01T05:31:22.753Z,89.25
2018-10-01T05:33:55.908Z,89.31
2018-10-01T05:36:29.524Z,89.29
2018-10-01T05:39:04.581Z,89.15
2018-10-01T05:41:39.612Z,88.86
2018-10-01T05:44:12.752Z,88.81
2018-10-01T05:46:46.407Z,89.05
2018-10-01T05:49:21.248Z,89.43
2018-10-01T05:51:53.761Z,89.46
2018-10-01T05:54:26.591Z,89.23
2018-10-01T05:56:59.224Z,89.05
2018-10-01T05:59:32.134Z,88.91
2018-10-01T06:02:06.626Z,88.78
2018-10-01T06:04:39.149Z,88.59
2018-10-01T06:07:12.765Z,88.37
2018-10-01T06:09:46.852Z,88.11
2018-10-01T06:12:19.775Z,87.87
2018-10-01T06:14:52.312Z,87.65
2018-10-01T06:17:26.093Z,87.58
2018-10-01T06:19:59.350Z,87.58
2018-10-01T06:22:34.465Z,87.59
2018-10-01T06:25:07.774Z,87.56
2018-10-01T06:27:40.332Z,87.64
2018-10-01T06:30:15.668Z,87.71
2018-10-01T06:32:49.362Z,87.66
2018-10-01T06:35:22.147Z,87.50
2018-10-01T06:37:57.405Z,87.43
2018-10-01T06:40:31.672Z,87.08
2018-10-01T06:43:04.344Z,86.60
2018-10-01T06:45:39.250Z,86.45
2018-10-01T06:48:12.343Z,86.19
2018-10-01T06:50:46.130Z,86.06
2018-10-01T06:53:19.410Z,85.99
2018-10-01T06:55:53.231Z,86.09
2018-10-01T06:58:25.710Z,86.02
2018-10-01T07:01:03.933Z,85.90
2018-10-01T07:03:37.519Z,85.78
2018-10-01T07:06:10.116Z,85.71
2018-10-01T07:08:44.762Z,85.43
2018-10-01T07:11:17.586Z,85.29
2018-10-01T07:13:51.255Z,85.16
2018-10-01T07:16:25.254Z,85.15
2018-10-01T07:18:59.253Z,85.03
2018-10-01T07:21:33.972Z,85.02
2018-10-01T07:24:09.731Z,84.76
2018-10-01T07:26:53.891Z,84.55
2018-10-01T07:29:35.267Z,84.10
2018-10-01T07:32:07.799Z,83.71
2018-10-01T07:34:41.776Z,83.24
2018-10-01T07:37:17.070Z,81.67
2018-10-01T07:39:51.732Z,81.45
2018-10-01T07:42:24.895Z,81.42
2018-10-01T07:45:04.848Z,81.49
2018-10-01T07:47:37.344Z,80.79
2018-10-01T07:50:11.935Z,80.40
2018-10-01T07:52:46.939Z,80.24
2018-10-01T07:55:20.241Z,80.31
2018-10-01T07:57:54.053Z,80.40
2018-10-01T08:00:29.001Z,79.82
2018-10-01T08:03:03.351Z,79.05
2018-10-01T08:05:38.145Z,78.71
2018-10-01T08:08:11.787Z,78.71
2018-10-01T08:10:48.169Z,77.93
2018-10-01T08:13:21.001Z,77.26
2018-10-01T08:15:54.876Z,77.31
2018-10-01T08:18:29.556Z,76.64
2018-10-01T08:21:02.302Z,76.07
2018-10-01T08:23:35.994Z,76.14
2018-10-01T08:26:10.802Z,75.81
2018-10-01T08:28:44.792Z,75.72
2018-10-01T08:31:24.681Z,75.02
2018-10-01T08:33:58.904Z,72.69
2018-10-01T08:36:33.053Z,71.22
2018-10-01T08:39:13.673Z,66.81
2018-10-01T08:41:46.428Z,66.48
2018-10-01T08:44:20.261Z,66.50
2018-10-01T08:46:54.562Z,65.12
2018-10-01T08:49:38.372Z,64.12
2018-10-01T08:52:16.566Z,63.26
2018-10-01T08:54:50.400Z,63.35
2018-10-01T08:57:24.301Z,62.82
2018-10-01T08:59:57.769Z,62.68
2018-10-01T09:02:30.372Z,63.38
2018-10-01T09:05:05.293Z,64.20
2018-10-01T09:07:39.334Z,64.61
2018-10-01T09:10:12.976Z,64.89
2018-10-01T09:12:45.792Z,65.08
2018-10-01T09:15:19.465Z,65.30
2018-10-01T09:17:52.785Z,65.00
2018-10-01T09:20:26.002Z,64.33
2018-10-01T09:22:58.586Z,62.57
2018-10-01T09:25:33.931Z,63.06
2018-10-01T09:28:07.288Z,61.65
2018-10-01T09:30:39.838Z,58.19
2018-10-01T09:33:12.576Z,54.72
2018-10-01T09:35:46.097Z,53.59
2018-10-01T09:38:18.770Z,53.83
2018-10-01T09:40:51.333Z,54.31
2018-10-01T09:43:24.577Z,53.82
2018-10-01T09:45:59.169Z,54.75
2018-10-01T09:48:31.683Z,55.61
2018-10-01T09:51:09.274Z,57.10
2018-10-01T09:53:42.972Z,58.56
2018-10-01T09:56:15.670Z,59.56
2018-10-01T09:58:50.471Z,58.97
2018-10-01T10:01:24.489Z,58.21
2018-10-01T10:03:59.007Z,56.70
2018-10-01T10:06:35.831Z,55.87
2018-10-01T10:09:12.454Z,54.30
2018-10-01T10:11:45.617Z,55.12
2018-10-01T10:14:20.327Z,56.35
2018-10-01T10:16:53.977Z,56.06
2018-10-01T10:19:27.924Z,54.50
2018-10-01T10:22:02.541Z,53.96
2018-10-01T10:24:36.024Z,53.69
2018-10-01T10:27:10.641Z,56.57
2018-10-01T10:29:45.093Z,62.13
2018-10-01T10:32:17.785Z,67.51
2018-10-01T10:34:51.688Z,72.38
2018-10-01T10:37:26.502Z,76.06
2018-10-01T10:39:59.068Z,78.88
2018-10-01T10:42:33.368Z,79.73
2018-10-01T10:45:07.488Z,79.23
2018-10-01T10:47:41.033Z,80.36
2018-10-01T10:50:14.012Z,80.65
2018-10-01T10:52:48.987Z,81.39
2018-10-01T10:55:21.553Z,82.48
2018-10-01T10:57:54.320Z,83.21
2018-10-01T11:00:28.669Z,81.40
2018-10-01T11:03:02.057Z,79.63
2018-10-01T11:05:35.420Z,77.27
2018-10-01T11:08:08.024Z,76.70
2018-10-01T11:10:41.861Z,70.78
2018-10-01T11:13:15.849Z,69.98
2018-10-01T11:15:51.600Z,70.99
2018-10-01T11:18:24.879Z,71.14
2018-10-01T11:20:57.670Z,70.43
2018-10-01T11:23:31.725Z,68.93
2018-10-01T11:26:04.212Z,66.00
2018-10-01T11:28:36.772Z,62.87
2018-10-01T11:31:09.785Z,62.40
2018-10-01T11:33:44.401Z,64.57
2018-10-01T11:36:19.077Z,64.58
2018-10-01T11:38:51.444Z,64.16
2018-10-01T11:41:28.255Z,60.29
2018-10-01T11:44:05.548Z,59.63
2018-10-01T11:46:38.368Z,65.23
2018-10-01T11:49:13.381Z,71.64
2018-10-01T11:51:48.309Z,77.24
2018-10-01T11:54:24.790Z,81.82
2018-10-01T11:57:05.536Z,83.39
2018-10-01T11:59:40.793Z,84.24
2018-10-01T12:02:32.520Z,84.64
2018-10-01T12:05:10.419Z,85.40
2018-10-01T12:07:56.797Z,86.07
2018-10-01T12:10:43.337Z,86.89
2018-10-01T12:13:20.485Z,87.24
2018-10-01T12:15:57.923Z,87.23
2018-10-01T12:18:36.696Z,87.36
2018-10-01T12:21:17.889Z,87.11
2018-10-01T12:23:54.712Z,86.99
2018-10-01T12:26:32.511Z,86.97
2018-10-01T12:29:07.037Z,87.18
2018-10-01T12:31:40.462Z,86.76
2018-10-01T12:34:13.133Z,86.16
2018-10-01T12:36:48.172Z,86.42
2018-10-01T12:39:22.418Z,86.31
2018-10-01T12:42:08.780Z,85.18
2018-10-01T12:44:47.884Z,84.73
2018-10-01T12:47:22.949Z,84.91
2018-10-01T12:49:59.190Z,84.54
2018-10-01T12:52:39.525Z,85.47
2018-10-01T12:55:16.653Z,84.29
2018-10-01T12:57:54.884Z,83.38
2018-10-01T13:00:29.315Z,76.53
2018-10-01T13:03:05.884Z,72.93
2018-10-01T13:05:39.729Z,74.22
2018-10-01T13:08:14.293Z,72.25
2018-10-01T13:10:52.863Z,71.15
2018-10-01T13:13:29.001Z,72.52
2018-10-01T13:16:05.525Z,71.54
2018-10-01T13:18:40.015Z,73.74
2018-10-01T13:21:18.465Z,76.36
2018-10-01T13:23:52.802Z,78.38
2018-10-01T13:26:33.984Z,78.80
2018-10-01T13:29:10.660Z,78.48
2018-10-01T13:31:49.294Z,79.01
2018-10-01T13:34:29.621Z,77.03
2018-10-01T13:37:04.801Z,77.04
2018-10-01T13:39:44.263Z,76.85
2018-10-01T13:42:23.925Z,75.91
2018-10-01T13:44:59.520Z,73.05
2018-10-01T13:47:34.455Z,74.42
2018-10-01T13:50:12.979Z,73.52
2018-10-01T13:52:49.524Z,71.87
2018-10-01T13:55:28.016Z,71.87
2018-10-01T13:58:02.278Z,71.36
2018-10-01T14:00:43.760Z,69.80
2018-10-01T14:03:18.064Z,69.76
2018-10-01T14:05:52.169Z,67.51
2018-10-01T14:08:31.257Z,66.97
2018-10-01T14:11:04.856Z,66.04
2018-10-01T14:13:42.674Z,64.64
2018-10-01T14:16:17.316Z,62.29
2018-10-01T14:18:52.241Z,61.26
2018-10-01T14:21:38.384Z,57.87
2018-10-01T14:24:12.459Z,59.29
2018-10-01T14:26:51.713Z,60.47
2018-10-01T14:29:33.010Z,60.94
2018-10-01T14:32:06.793Z,59.93
2018-10-01T14:34:45.053Z,62.59
2018-10-01T14:37:24.620Z,64.68
2018-10-01T14:40:05.684Z,67.15
2018-10-01T14:42:40.703Z,69.80
2018-10-01T14:45:18.007Z,71.09
2018-10-01T14:47:55.932Z,71.41
2018-10-01T14:50:32.247Z,72.45
2018-10-01T14:53:08.642Z,72.16
2018-10-01T14:55:45.310Z,71.51
2018-10-01T14:58:19.300Z,69.46
2018-10-01T15:00:59.671Z,68.15
2018-10-01T15:03:32.393Z,66.64
2018-10-01T15:06:08.419Z,65.77
2018-10-01T15:08:45.720Z,63.06
2018-10-01T15:11:29.345Z,62.86
2018-10-01T15:14:02.713Z,62.77
2018-10-01T15:16:36.193Z,64.42
2018-10-01T15:19:15.867Z,65.49
2018-10-01T15:21:53.981Z,65.05
2018-10-01T15:24:26.667Z,65.87
2018-10-01T15:27:03.546Z,65.80
2018-10-01T15:29:40.557Z,64.95
2018-10-01T15:32:15.051Z,65.30
2018-10-01T15:34:50.694Z,64.91
2018-10-01T15:37:33.140Z,64.94
2018-10-01T15:40:14.088Z,64.72
2018-10-01T15:42:51.506Z,63.94
2018-10-01T15:45:25.598Z,64.58
2018-10-01T15:48:00.917Z,64.09
2018-10-01T15:50:40.117Z,63.65
2018-10-01T15:53:18.753Z,63.01
2018-10-01T15:55:55.809Z,63.02
2018-10-01T15:58:34.157Z,59.96
2018-10-01T16:01:10.300Z,60.65
2018-10-01T16:03:48.407Z,61.35
2018-10-01T16:06:23.409Z,61.90
2018-10-01T16:09:02.255Z,62.50
2018-10-01T16:11:36.490Z,62.27
2018-10-01T16:14:09.381Z,61.82
2018-10-01T16:16:46.343Z,63.51
2018-10-01T16:19:20.675Z,64.61
2018-10-01T16:21:56.969Z,66.01
2018-10-01T16:24:32.602Z,69.26
2018-10-01T16:27:09.535Z,71.45
2018-10-01T16:29:44.624Z,73.61
2018-10-01T16:32:20.712Z,75.11
2018-10-01T16:35:07.021Z,76.23
2018-10-01T16:37:44.189Z,76.54
2018-10-01T16:40:35.928Z,77.02
2018-10-01T16:43:11.514Z,78.05
2018-10-01T16:45:59.893Z,78.27
2018-10-01T16:48:37.334Z,78.42
2018-10-01T16:51:17.152Z,78.55
2018-10-01T16:53:56.755Z,78.79
2018-10-01T16:56:34.730Z,78.83
2018-10-01T16:59:15.460Z,79.29
2018-10-01T17:01:57.161Z,79.10
2018-10-01T17:04:32.394Z,78.88
2018-10-01T17:07:06.621Z,79.00
2018-10-01T17:09:46.532Z,78.78
2018-10-01T17:12:22.857Z,78.58
2018-10-01T17:14:58.227Z,78.11
2018-10-01T17:17:35.763Z,77.96
2018-10-01T17:20:10.734Z,78.15
2018-10-01T17:22:43.507Z,78.15
2018-10-01T17:25:25.800Z,77.83
2018-10-01T17:28:04.481Z,77.33
2018-10-01T17:30:44.179Z,77.09
2018-10-01T17:33:26.370Z,76.98
2018-10-01T17:36:04.907Z,76.74
2018-10-01T17:38:45.168Z,76.70
2018-10-01T17:41:24.460Z,76.46
2018-10-01T17:44:01.925Z,76.38
2018-10-01T17:46:44.549Z,76.73
2018-10-01T17:49:20.805Z,77.41
2018-10-01T17:52:00.889Z,78.04
2018-10-01T17:54:44.273Z,78.56
2018-10-01T17:57:23.717Z,78.99
2018-10-01T18:00:00.763Z,79.42
2018-10-01T18:02:57.383Z,80.27
2018-10-01T18:05:29.896Z,80.41
2018-10-01T18:08:07.659Z,80.63
2018-10-01T18:10:47.069Z,80.77
2018-10-01T18:13:29.633Z,80.82
2018-10-01T18:16:08.588Z,81.18
2018-10-01T18:18:43.223Z,81.43
2018-10-01T18:21:18.069Z,81.56
2018-10-01T18:23:52.970Z,81.63
2018-10-01T18:26:33.090Z,80.82
2018-10-01T18:29:10.607Z,81.01
2018-10-01T18:31:46.690Z,81.37
2018-10-01T18:34:23.918Z,81.67
2018-10-01T18:36:58.451Z,81.28
2018-10-01T18:39:35.624Z,81.69
2018-10-01T18:42:08.733Z,81.93
2018-10-01T18:44:43.884Z,82.44
2018-10-01T18:47:18.025Z,82.53
2018-10-01T18:49:57.057Z,82.82
2018-10-01T18:52:31.792Z,83.02
2018-10-01T18:55:12.531Z,82.90
2018-10-01T18:57:52.397Z,82.95
2018-10-01T19:00:32.494Z,83.22
2018-10-01T19:03:10.651Z,83.60
2018-10-01T19:05:54.540Z,83.44
2018-10-01T19:08:37.814Z,83.85
2018-10-01T19:11:17.113Z,84.25
2018-10-01T19:13:53.409Z,84.27
2018-10-01T19:16:33.690Z,84.46
2018-10-01T19:19:30.656Z,84.90
2018-10-01T19:22:08.487Z,85.07
2018-10-01T19:24:47.847Z,85.32
2018-10-01T19:27:38.259Z,85.52
2018-10-01T19:30:15.595Z,85.73
2018-10-01T19:32:51.403Z,86.11
2018-10-01T19:35:26.595Z,86.78
2018-10-01T19:38:03.012Z,87.48
2018-10-01T19:40:38.075Z,88.07
2018-10-01T19:43:12.338Z,88.35
2018-10-01T19:45:49.603Z,88.54
2018-10-01T19:48:30.471Z,88.78
2018-10-01T19:51:05.925Z,89.00
2018-10-01T19:53:44.764Z,89.17
2018-10-01T19:56:21.349Z,89.36
2018-10-01T19:58:59.507Z,89.32
2018-10-01T20:01:37.903Z,89.21
2018-10-01T20:04:12.637Z,89.01
2018-10-01T20:06:51.485Z,88.77
2018-10-01T20:09:30.110Z,88.62
2018-10-01T20:12:04.226Z,88.53
2018-10-01T20:14:41.448Z,88.32
2018-10-01T20:17:16.895Z,88.07
2018-10-01T20:19:54.164Z,87.79
2018-10-01T20:22:30.118Z,87.39
2018-10-01T20:25:04.033Z,87.22
2018-10-01T20:27:37.970Z,87.19
2018-10-01T20:30:14.568Z,87.36
2018-10-01T20:32:52.106Z,87.55
2018-10-01T20:35:28.030Z,87.85
2018-10-01T20:38:01.587Z,88.10
2018-10-01T20:40:40.330Z,88.29
2018-10-01T20:43:14.948Z,88.76
2018-10-01T20:45:51.236Z,88.96
2018-10-01T20:48:26.036Z,89.12
2018-10-01T20:51:00.652Z,88.96
2018-10-01T20:53:33.963Z,89.22
2018-10-01T20:56:08.390Z,89.62
2018-10-01T20:58:41.877Z,89.80
2018-10-01T21:01:17.857Z,89.99
2018-10-01T21:03:52.895Z,90.19
2018-10-01T21:06:31.329Z,90.35
2018-10-01T21:09:07.732Z,90.53
2018-10-01T21:11:42.519Z,90.61
2018-10-01T21:14:22.788Z,90.71
2018-10-01T21:16:58.045Z,90.82
2018-10-01T21:19:36.009Z,91.07
2018-10-01T21:22:11.962Z,91.35
2018-10-01T21:24:50.956Z,91.50
2018-10-01T21:27:27.772Z,91.67
2018-10-01T21:30:08.780Z,91.76
2018-10-01T21:32:41.777Z,91.78
2018-10-01T21:35:16.088Z,91.85
2018-10-01T21:37:52.425Z,91.85
2018-10-01T21:40:28.743Z,91.89
2018-10-01T21:43:03.824Z,91.99
2018-10-01T21:45:40.753Z,92.01
2018-10-01T21:48:15.476Z,91.84
2018-10-01T21:50:51.462Z,91.85
2018-10-01T21:53:24.508Z,91.82
2018-10-01T21:55:58.144Z,91.66
2018-10-01T21:58:32.712Z,91.90
2018-10-01T22:01:10.877Z,92.28
2018-10-01T22:03:49.091Z,92.92
2018-10-01T22:06:24.607Z,93.38
2018-10-01T22:08:58.479Z,93.63
2018-10-01T22:11:40.404Z,93.89
2018-10-01T22:14:13.048Z,94.05
2018-10-01T22:16:46.925Z,94.16
2018-10-01T22:19:20.012Z,94.26
2018-10-01T22:21:54.280Z,94.37
2018-10-01T22:24:27.332Z,94.40
2018-10-01T22:27:00.643Z,94.58
2018-10-01T22:29:34.364Z,94.68
2018-10-01T22:32:10.693Z,94.83
2018-10-01T22:34:52.619Z,94.91
2018-10-01T22:37:25.797Z,94.99
2018-10-01T22:39:59.632Z,95.14
2018-10-01T22:42:32.211Z,95.18
2018-10-01T22:45:10.459Z,95.32
2018-10-01T22:47:48.589Z,95.49
2018-10-01T22:50:36.720Z,95.58
2018-10-01T22:53:10.848Z,95.62
2018-10-01T22:55:43.824Z,95.71
2018-10-01T22:58:17.789Z,95.71
2018-10-01T23:00:51.667Z,95.73
2018-10-01T23:03:29.208Z,95.79
2018-10-01T23:06:02.463Z,95.79
2018-10-01T23:08:36.146Z,95.78
2018-10-01T23:11:10.723Z,95.87
2018-10-01T23:13:43.444Z,95.89
2018-10-01T23:16:16.141Z,95.91
2018-10-01T23:18:49.029Z,95.96
2018-10-01T23:21:21.907Z,96.05
2018-10-01T23:23:56.468Z,96.04
2018-10-01T23:26:30.914Z,96.05
2018-10-01T23:29:03.475Z,96.06
2018-10-01T23:31:36.041Z,96.14
2018-10-01T23:34:09.251Z,96.14
2018-10-01T23:36:43.479Z,96.21
2018-10-01T23:39:16.909Z,96.24
2018-10-01T23:41:49.805Z,96.31
2018-10-01T23:44:23.579Z,96.41
2018-10-01T23:46:57.786Z,96.45
2018-10-01T23:49:33.353Z,96.44
2018-10-01T23:52:10.232Z,96.33
2018-10-01T23:54:45.414Z,96.31
2018-10-01T23:57:23.773Z,96.30
2018-10-01T23:59:59.443Z,96.25
